createdAt,value
2018-01-15T00:01:09.496Z,25.10
2018-01-15T00:03:37.872Z,25.20
2018-01-15T00:06:08.861Z,24.90
2018-01-15T00:08:36.442Z,24.90
2018-01-15T00:11:04.096Z,25.20
2018-01-15T00:13:33.192Z,25.90
2018-01-15T00:16:00.872Z,25.80
2018-01-15T00:18:28.418Z,25.90
2018-01-15T00:20:56.084Z,25.50
2018-01-15T00:23:24.695Z,25.30
2018-01-15T00:25:53.022Z,25.70
2018-01-15T00:28:20.888Z,25.70
2018-01-15T00:30:52.100Z,25.70
2018-01-15T00:33:21.548Z,25.70
2018-01-15T00:35:49.498Z,25.40
2018-01-15T00:38:17.080Z,25.60
2018-01-15T00:40:45.343Z,25.60
2018-01-15T00:43:12.889Z,25.50
2018-01-15T00:45:40.512Z,25.40
2018-01-15T00:48:10.752Z,25.30
2018-01-15T00:50:38.720Z,25.30
2018-01-15T00:53:07.180Z,25.20
2018-01-15T00:55:36.346Z,25.20
2018-01-15T00:58:06.690Z,25.30
2018-01-15T01:00:35.025Z,25.40
2018-01-15T01:03:02.602Z,25.10
2018-01-15T01:05:33.310Z,25.10
2018-01-15T01:08:01.690Z,25.00
2018-01-15T01:10:29.266Z,25.20
2018-01-15T01:12:56.902Z,25.10
2018-01-15T01:15:30.073Z,24.80
2018-01-15T01:17:57.682Z,24.90
2018-01-15T01:20:26.030Z,24.90
2018-01-15T01:22:53.634Z,24.90
2018-01-15T01:25:30.948Z,24.90
2018-01-15T01:27:59.266Z,24.70
2018-01-15T01:30:26.854Z,24.70
2018-01-15T01:32:57.413Z,24.80
2018-01-15T01:35:26.858Z,24.80
2018-01-15T01:40:31.658Z,24.80
2018-01-15T01:42:59.272Z,24.80
2018-01-15T01:45:26.839Z,24.80
2018-01-15T01:47:54.598Z,24.70
2018-01-15T01:50:22.202Z,24.80
2018-01-15T01:52:50.628Z,24.80
2018-01-15T01:55:24.226Z,24.70
2018-01-15T01:57:51.899Z,24.80
2018-01-15T02:00:27.140Z,24.80
2018-01-15T02:02:54.794Z,24.80
2018-01-15T02:05:22.359Z,24.80
2018-01-15T02:07:49.935Z,24.80
2018-01-15T02:10:17.922Z,24.60
2018-01-15T02:12:46.534Z,24.80
2018-01-15T02:15:14.977Z,24.80
2018-01-15T02:20:42.241Z,24.70
2018-01-15T02:23:10.476Z,24.70
2018-01-15T02:25:53.310Z,24.60
2018-01-15T02:31:07.423Z,24.60
2018-01-15T02:33:35.977Z,24.60
2018-01-15T02:36:03.546Z,24.60
2018-01-15T02:38:31.131Z,24.50
2018-01-15T02:40:59.494Z,24.60
2018-01-15T02:43:54.341Z,25.00
2018-01-15T02:46:26.115Z,24.60
2018-01-15T02:49:00.580Z,24.40
2018-01-15T02:51:28.153Z,24.50
2018-01-15T02:53:55.877Z,24.90
2018-01-15T02:56:23.454Z,24.40
2018-01-15T02:58:51.024Z,24.40
2018-01-15T03:01:19.454Z,24.30
2018-01-15T03:03:47.029Z,24.50
2018-01-15T03:06:14.655Z,24.40
2018-01-15T03:08:43.493Z,24.40
2018-01-15T03:11:11.183Z,24.40
2018-01-15T03:13:40.241Z,24.20
2018-01-15T03:16:07.846Z,24.20
2018-01-15T03:18:36.423Z,24.30
2018-01-15T03:21:03.994Z,24.40
2018-01-15T03:23:32.519Z,24.30
2018-01-15T03:26:01.697Z,24.40
2018-01-15T03:28:29.271Z,24.20
2018-01-15T03:30:56.843Z,24.30
2018-01-15T03:33:25.125Z,24.30
2018-01-15T03:35:52.981Z,24.20
2018-01-15T03:38:21.433Z,24.20
2018-01-15T03:40:49.763Z,24.30
2018-01-15T03:43:17.344Z,24.20
2018-01-15T03:45:48.539Z,24.20
2018-01-15T03:48:16.397Z,24.20
2018-01-15T03:50:43.998Z,24.20
2018-01-15T03:53:11.618Z,24.10
2018-01-15T03:55:39.249Z,24.20
2018-01-15T03:58:07.711Z,24.10
2018-01-15T04:00:36.289Z,24.10
2018-01-15T04:03:03.853Z,24.00
2018-01-15T04:05:31.510Z,24.10
2018-01-15T04:07:59.949Z,24.10
2018-01-15T04:10:27.493Z,23.80
2018-01-15T04:12:55.573Z,24.10
2018-01-15T04:15:23.144Z,24.00
2018-01-15T04:17:50.756Z,24.10
2018-01-15T04:20:19.077Z,24.30
2018-01-15T04:22:47.794Z,24.00
2018-01-15T04:25:15.361Z,24.10
2018-01-15T04:27:42.930Z,24.00
2018-01-15T04:30:11.273Z,23.80
2018-01-15T04:32:39.569Z,24.00
2018-01-15T04:35:07.949Z,24.30
2018-01-15T04:37:39.627Z,24.00
2018-01-15T04:40:08.257Z,23.80
2018-01-15T04:42:35.844Z,23.80
2018-01-15T04:45:03.547Z,23.70
2018-01-15T04:47:32.695Z,23.70
2018-01-15T04:50:00.338Z,23.70
2018-01-15T04:52:28.836Z,23.70
2018-01-15T04:54:58.199Z,23.70
2018-01-15T04:57:26.638Z,23.60
2018-01-15T04:59:54.787Z,23.70
2018-01-15T05:02:25.712Z,23.70
2018-01-15T05:04:54.393Z,23.70
2018-01-15T05:07:22.065Z,23.60
2018-01-15T05:09:50.527Z,23.70
2018-01-15T05:12:19.435Z,23.70
2018-01-15T05:14:47.599Z,23.70
2018-01-15T05:17:15.135Z,23.50
2018-01-15T05:19:43.986Z,23.70
2018-01-15T05:22:11.581Z,23.60
2018-01-15T05:24:39.945Z,23.70
2018-01-15T05:27:08.877Z,23.70
2018-01-15T05:29:36.449Z,23.70
2018-01-15T05:32:04.045Z,23.70
2018-01-15T05:34:31.705Z,23.60
2018-01-15T05:37:00.162Z,23.70
2018-01-15T05:39:27.790Z,23.70
2018-01-15T05:41:55.461Z,23.70
2018-01-15T05:44:23.029Z,23.60
2018-01-15T05:46:50.648Z,23.70
2018-01-15T05:49:20.423Z,23.70
2018-01-15T05:51:48.013Z,23.70
2018-01-15T05:54:17.807Z,23.70
2018-01-15T05:56:45.442Z,23.70
2018-01-15T05:59:13.029Z,23.70
2018-01-15T06:01:40.681Z,23.70
2018-01-15T06:04:08.243Z,23.70
2018-01-15T06:06:50.713Z,23.70
2018-01-15T06:09:38.001Z,23.70
2018-01-15T06:12:06.333Z,24.30
2018-01-15T06:14:33.917Z,23.70
2018-01-15T06:17:01.534Z,23.70
2018-01-15T06:19:29.775Z,23.70
2018-01-15T06:21:58.212Z,24.00
2018-01-15T06:24:26.709Z,23.70
2018-01-15T06:26:54.305Z,23.70
2018-01-15T06:29:22.628Z,23.70
2018-01-15T06:31:50.455Z,23.70
2018-01-15T06:34:18.045Z,23.70
2018-01-15T06:36:45.640Z,23.70
2018-01-15T06:39:14.598Z,23.70
2018-01-15T06:41:42.223Z,24.00
2018-01-15T06:44:16.108Z,23.80
2018-01-15T06:46:43.824Z,23.70
2018-01-15T06:49:11.796Z,23.70
2018-01-15T06:51:39.998Z,23.70
2018-01-15T06:54:07.666Z,23.70
2018-01-15T06:56:35.254Z,23.70
2018-01-15T06:59:04.383Z,23.70
2018-01-15T07:01:32.002Z,23.70
2018-01-15T07:03:59.580Z,23.70
2018-01-15T07:06:27.906Z,23.80
2018-01-15T07:08:55.644Z,23.90
2018-01-15T07:11:23.204Z,24.40
2018-01-15T07:13:50.786Z,27.10
2018-01-15T07:16:18.389Z,28.40
2018-01-15T07:18:47.114Z,28.00
2018-01-15T07:21:15.080Z,28.10
2018-01-15T07:23:43.941Z,27.80
2018-01-15T07:26:12.309Z,28.20
2018-01-15T07:28:41.668Z,28.30
2018-01-15T07:31:09.223Z,28.90
2018-01-15T07:33:37.382Z,27.50
2018-01-15T07:36:04.966Z,26.30
2018-01-15T07:38:32.602Z,25.60
2018-01-15T07:41:00.208Z,25.90
2018-01-15T07:43:28.151Z,25.80
2018-01-15T07:45:55.706Z,26.00
2018-01-15T07:48:23.401Z,26.10
2018-01-15T07:50:51.455Z,25.90
2018-01-15T07:53:19.029Z,26.10
2018-01-15T07:55:46.629Z,26.10
2018-01-15T07:58:17.021Z,26.00
2018-01-15T08:00:44.659Z,25.80
2018-01-15T08:03:12.322Z,25.80
2018-01-15T08:05:40.073Z,25.80
2018-01-15T08:08:07.639Z,25.70
2018-01-15T08:10:35.350Z,26.00
2018-01-15T08:13:03.691Z,25.50
2018-01-15T08:15:31.317Z,25.60
2018-01-15T08:17:58.941Z,25.50
2018-01-15T08:20:26.563Z,25.30
2018-01-15T08:22:54.169Z,25.20
2018-01-15T08:25:22.781Z,25.10
2018-01-15T08:27:56.037Z,25.10
2018-01-15T08:30:23.661Z,25.20
2018-01-15T08:32:51.333Z,25.00
2018-01-15T08:35:20.103Z,25.00
2018-01-15T08:37:48.537Z,24.80
2018-01-15T08:40:16.935Z,24.90
2018-01-15T08:42:47.740Z,24.90
2018-01-15T08:45:15.384Z,25.30
2018-01-15T08:47:43.079Z,26.70
2018-01-15T08:50:10.685Z,26.50
2018-01-15T08:52:38.289Z,26.00
2018-01-15T08:55:06.297Z,25.80
2018-01-15T08:57:35.089Z,25.60
2018-01-15T09:00:02.815Z,25.60
2018-01-15T09:02:31.169Z,25.30
2018-01-15T09:04:58.857Z,25.40
2018-01-15T09:07:27.623Z,25.30
2018-01-15T09:09:55.813Z,25.40
2018-01-15T09:12:23.395Z,25.50
2018-01-15T09:14:54.787Z,25.30
2018-01-15T09:17:28.391Z,25.70
2018-01-15T09:19:57.079Z,25.30
2018-01-15T09:22:24.695Z,25.40
2018-01-15T09:24:54.575Z,25.20
2018-01-15T09:27:22.929Z,25.20
2018-01-15T09:29:51.249Z,25.20
2018-01-15T09:32:19.686Z,25.10
2018-01-15T09:34:47.319Z,25.20
2018-01-15T09:37:14.865Z,25.60
2018-01-15T09:39:42.477Z,25.10
2018-01-15T09:42:10.035Z,24.80
2018-01-15T09:44:43.548Z,24.80
2018-01-15T09:47:11.238Z,24.70
2018-01-15T09:49:39.583Z,25.10
2018-01-15T09:52:08.001Z,24.50
2018-01-15T09:54:35.585Z,24.70
2018-01-15T09:57:05.549Z,24.70
2018-01-15T09:59:33.155Z,24.60
2018-01-15T10:02:00.745Z,24.60
2018-01-15T10:04:28.679Z,24.60
2018-01-15T10:06:57.163Z,24.50
2018-01-15T10:09:24.745Z,24.60
2018-01-15T10:11:52.397Z,24.40
2018-01-15T10:14:20.000Z,28.40
2018-01-15T10:16:49.849Z,30.40
2018-01-15T10:19:19.673Z,32.10
2018-01-15T10:21:47.301Z,31.40
2018-01-15T10:24:16.941Z,33.90
2018-01-15T10:26:49.024Z,33.90
2018-01-15T10:29:17.652Z,33.90
2018-01-15T10:31:45.998Z,33.30
2018-01-15T10:34:15.071Z,33.30
2018-01-15T10:36:42.645Z,32.50
2018-01-15T10:39:13.200Z,31.30
2018-01-15T10:41:40.822Z,30.90
2018-01-15T10:44:09.071Z,30.70
2018-01-15T10:46:37.775Z,29.80
2018-01-15T10:49:05.432Z,29.90
2018-01-15T10:51:34.118Z,29.30
2018-01-15T10:54:01.727Z,29.60
2018-01-15T10:56:32.155Z,28.60
2018-01-15T10:58:59.742Z,28.50
2018-01-15T11:01:28.119Z,28.50
2018-01-15T11:03:55.696Z,28.50
2018-01-15T11:06:27.253Z,28.50
2018-01-15T11:08:54.931Z,28.50
2018-01-15T11:11:22.687Z,28.50
2018-01-15T11:13:50.944Z,28.50
2018-01-15T11:16:18.575Z,28.50
2018-01-15T11:18:46.228Z,28.20
2018-01-15T11:21:34.211Z,27.70
2018-01-15T11:24:03.346Z,27.70
2018-01-15T11:26:30.937Z,27.50
2018-01-15T11:28:58.508Z,27.50
2018-01-15T11:31:27.120Z,26.90
2018-01-15T11:33:55.091Z,26.90
2018-01-15T11:36:23.780Z,27.70
2018-01-15T11:38:51.421Z,28.50
2018-01-15T11:41:23.087Z,28.10
2018-01-15T11:43:50.721Z,27.70
2018-01-15T11:46:18.296Z,28.50
2018-01-15T11:48:45.935Z,28.20
2018-01-15T11:51:13.843Z,28.40
2018-01-15T11:53:41.436Z,27.50
2018-01-15T11:56:09.269Z,27.40
2018-01-15T11:58:43.027Z,27.30
2018-01-15T12:01:11.915Z,27.50
2018-01-15T12:03:39.485Z,27.50
2018-01-15T12:06:08.128Z,27.30
2018-01-15T12:11:28.253Z,27.30
2018-01-15T12:19:39.249Z,27.10
2018-01-15T12:22:06.889Z,27.00
2018-01-15T12:24:34.457Z,27.00
2018-01-15T12:27:02.143Z,26.90
2018-01-15T12:29:29.778Z,26.70
2018-01-15T12:31:58.281Z,27.00
2018-01-15T12:34:25.972Z,27.10
2018-01-15T12:36:53.513Z,27.10
2018-01-15T12:39:21.065Z,27.40
2018-01-15T12:41:48.660Z,27.00
2018-01-15T12:44:17.127Z,26.90
2018-01-15T12:46:44.679Z,26.90
2018-01-15T12:49:12.221Z,26.80
2018-01-15T12:51:39.853Z,26.80
2018-01-15T12:54:07.579Z,26.80
2018-01-15T12:56:35.392Z,26.80
2018-01-15T12:59:03.135Z,27.00
2018-01-15T13:01:31.867Z,26.80
2018-01-15T13:04:00.324Z,26.60
2018-01-15T13:06:39.927Z,26.70
2018-01-15T13:09:08.279Z,26.70
2018-01-15T13:11:35.892Z,26.70
2018-01-15T13:14:03.475Z,26.60
2018-01-15T13:16:31.039Z,26.70
2018-01-15T13:18:58.632Z,26.80
2018-01-15T13:21:26.251Z,26.60
2018-01-15T13:23:53.819Z,26.50
2018-01-15T13:26:21.376Z,26.60
2018-01-15T13:28:48.954Z,26.30
2018-01-15T13:31:16.576Z,26.30
2018-01-15T13:33:44.164Z,26.20
2018-01-15T13:36:11.770Z,26.40
2018-01-15T13:38:39.338Z,26.30
2018-01-15T13:41:06.987Z,26.20
2018-01-15T13:43:35.358Z,26.10
2018-01-15T13:46:03.694Z,26.00
2018-01-15T13:48:31.240Z,26.00
2018-01-15T13:50:58.888Z,26.10
2018-01-15T13:53:26.472Z,26.10
2018-01-15T13:55:54.130Z,26.10
2018-01-15T13:58:21.760Z,26.40
2018-01-15T14:00:49.314Z,26.20
2018-01-15T14:03:16.884Z,26.10
2018-01-15T14:05:44.478Z,26.30
2018-01-15T14:08:12.028Z,26.20
2018-01-15T14:10:39.654Z,26.20
2018-01-15T14:13:07.234Z,26.30
2018-01-15T14:15:34.858Z,26.40
2018-01-15T14:18:03.227Z,26.30
2018-01-15T14:20:30.791Z,26.40
2018-01-15T14:22:59.102Z,26.40
2018-01-15T14:25:26.692Z,26.40
2018-01-15T14:27:54.248Z,26.40
2018-01-15T14:30:21.810Z,26.30
2018-01-15T14:32:49.400Z,26.40
2018-01-15T14:35:16.940Z,26.40
2018-01-15T14:37:44.501Z,26.40
2018-01-15T14:40:12.115Z,26.50
2018-01-15T14:42:39.692Z,26.60
2018-01-15T14:45:07.328Z,26.60
2018-01-15T14:47:35.720Z,26.80
2018-01-15T14:50:03.312Z,26.70
2018-01-15T14:52:30.900Z,26.70
2018-01-15T14:54:58.440Z,26.60
2018-01-15T14:57:26.054Z,26.60
2018-01-15T14:59:53.728Z,26.70
2018-01-15T15:02:21.301Z,26.60
2018-01-15T15:04:48.901Z,26.50
2018-01-15T15:07:16.467Z,26.60
2018-01-15T15:09:44.023Z,26.70
2018-01-15T15:12:11.625Z,26.40
2018-01-15T15:14:39.272Z,26.70
2018-01-15T15:17:07.689Z,26.30
2018-01-15T15:19:35.430Z,26.30
2018-01-15T15:22:02.996Z,26.20
2018-01-15T15:24:30.570Z,26.20
2018-01-15T15:26:58.176Z,26.10
2018-01-15T15:29:26.516Z,26.00
2018-01-15T15:31:54.358Z,26.00
2018-01-15T15:34:21.964Z,25.90
2018-01-15T15:36:49.602Z,26.00
2018-01-15T15:39:17.290Z,25.70
2018-01-15T15:41:44.877Z,25.80
2018-01-15T15:44:13.238Z,25.70
2018-01-15T15:46:41.560Z,25.70
2018-01-15T15:49:09.138Z,25.70
2018-01-15T15:51:36.734Z,25.90
2018-01-15T15:54:05.060Z,25.90
2018-01-15T15:56:32.634Z,26.00
2018-01-15T15:59:00.265Z,26.00
2018-01-15T16:01:27.814Z,25.90
2018-01-15T16:03:56.153Z,25.90
2018-01-15T16:06:23.746Z,25.90
2018-01-15T16:08:52.258Z,25.60
2018-01-15T16:11:19.816Z,25.70
2018-01-15T16:13:47.432Z,26.70
2018-01-15T16:16:14.983Z,27.10
2018-01-15T16:18:42.550Z,27.70
2018-01-15T16:21:10.912Z,28.70
2018-01-15T16:23:38.531Z,28.50
2018-01-15T16:26:06.174Z,28.50
2018-01-15T16:28:34.518Z,29.10
2018-01-15T16:31:02.084Z,29.10
2018-01-15T16:33:29.667Z,30.40
2018-01-15T16:35:58.051Z,35.20
2018-01-15T16:38:25.709Z,35.20
2018-01-15T16:40:54.078Z,35.50
2018-01-15T16:43:22.427Z,35.90
2018-01-15T16:45:49.977Z,36.00
2018-01-15T16:48:17.650Z,38.10
2018-01-15T16:50:45.217Z,40.00
2018-01-15T16:53:12.777Z,40.70
2018-01-15T16:55:40.597Z,44.40
2018-01-15T16:58:08.167Z,44.30
2018-01-15T17:00:35.845Z,45.80
2018-01-15T17:03:03.455Z,42.90
2018-01-15T17:05:31.101Z,40.00
2018-01-15T17:07:59.596Z,34.20
2018-01-15T17:10:27.377Z,34.20
2018-01-15T17:12:54.948Z,32.30
2018-01-15T17:15:22.544Z,32.50
2018-01-15T17:17:50.171Z,34.10
2018-01-15T17:20:17.923Z,34.20
2018-01-15T17:22:45.495Z,33.90
2018-01-15T17:25:13.133Z,31.60
2018-01-15T17:27:40.710Z,31.40
2018-01-15T17:30:09.051Z,30.50
2018-01-15T17:32:37.416Z,29.90
2018-01-15T17:35:05.011Z,30.00
2018-01-15T17:37:32.682Z,29.10
2018-01-15T17:40:01.267Z,29.00
2018-01-15T17:42:29.066Z,29.20
2018-01-15T17:44:56.658Z,29.30
2018-01-15T17:47:25.033Z,28.70
2018-01-15T17:49:53.551Z,29.00
2018-01-15T17:52:21.259Z,29.20
2018-01-15T17:54:48.858Z,28.70
2018-01-15T17:57:16.455Z,28.70
2018-01-15T17:59:44.121Z,28.70
2018-01-15T18:02:12.511Z,28.60
2018-01-15T18:04:40.059Z,28.60
2018-01-15T18:07:07.624Z,28.60
2018-01-15T18:09:35.215Z,28.60
2018-01-15T18:12:03.621Z,28.90
2018-01-15T18:14:31.224Z,28.60
2018-01-15T18:16:58.805Z,28.60
2018-01-15T18:19:26.437Z,28.60
2018-01-15T18:21:53.994Z,29.70
2018-01-15T18:24:21.553Z,29.60
2018-01-15T18:26:49.153Z,29.90
2018-01-15T18:29:16.728Z,29.40
2018-01-15T18:31:45.111Z,29.50
2018-01-15T18:34:13.453Z,29.60
2018-01-15T18:36:41.038Z,29.60
2018-01-15T18:39:09.405Z,29.50
2018-01-15T18:41:37.869Z,30.10
2018-01-15T18:44:05.584Z,29.70
2018-01-15T18:46:33.174Z,28.50
2018-01-15T18:49:00.987Z,28.50
2018-01-15T18:51:29.306Z,28.50
2018-01-15T18:53:56.895Z,28.60
2018-01-15T18:56:24.520Z,28.90
2018-01-15T18:58:52.170Z,28.50
2018-01-15T19:01:20.019Z,28.50
2018-01-15T19:03:47.815Z,28.50
2018-01-15T19:06:15.456Z,28.50
2018-01-15T19:08:43.044Z,28.50
2018-01-15T19:11:10.688Z,28.50
2018-01-15T19:13:38.275Z,28.50
2018-01-15T19:16:05.863Z,28.50
2018-01-15T19:18:33.482Z,28.50
2018-01-15T19:21:01.132Z,28.50
2018-01-15T19:23:28.716Z,28.50
2018-01-15T19:25:56.346Z,28.50
2018-01-15T19:28:23.942Z,28.50
2018-01-15T19:30:51.635Z,28.50
2018-01-15T19:33:19.234Z,28.50
2018-01-15T19:35:52.486Z,29.10
2018-01-15T19:38:20.119Z,28.50
2018-01-15T19:40:47.751Z,28.50
2018-01-15T19:43:35.011Z,28.50
2018-01-15T19:46:08.146Z,28.40
2018-01-15T19:48:41.287Z,28.40
2018-01-15T19:51:14.632Z,28.50
2018-01-15T19:53:47.874Z,28.50
2018-01-15T19:56:21.146Z,28.50
2018-01-15T19:58:54.363Z,28.50
2018-01-15T20:01:27.568Z,28.40
2018-01-15T20:04:02.204Z,28.50
2018-01-15T20:06:46.527Z,28.40
2018-01-15T20:09:19.732Z,28.50
2018-01-15T20:11:47.316Z,28.50
2018-01-15T20:14:15.728Z,28.50
2018-01-15T20:16:43.352Z,28.40
2018-01-15T20:19:11.806Z,28.50
2018-01-15T20:21:39.417Z,28.50
2018-01-15T20:24:06.983Z,28.50
2018-01-15T20:26:34.582Z,28.40
2018-01-15T20:29:03.008Z,28.50
2018-01-15T20:31:31.102Z,28.40
2018-01-15T20:33:58.728Z,28.50
2018-01-15T20:36:27.124Z,29.00
2018-01-15T20:38:54.840Z,28.40
2018-01-15T20:41:22.430Z,28.50
2018-01-15T20:43:50.830Z,28.50
2018-01-15T20:46:18.564Z,28.40
2018-01-15T20:48:47.132Z,28.40
2018-01-15T20:51:14.798Z,28.40
2018-01-15T20:53:42.518Z,28.40
2018-01-15T20:56:10.205Z,28.40
2018-01-15T20:58:37.814Z,28.40
2018-01-15T21:01:06.162Z,28.50
2018-01-15T21:03:34.598Z,28.40
2018-01-15T21:06:02.748Z,28.40
2018-01-15T21:08:31.129Z,28.40
2018-01-15T21:10:59.522Z,28.40
2018-01-15T21:13:27.100Z,28.40
2018-01-15T21:15:54.730Z,28.50
2018-01-15T21:18:23.094Z,28.40
2018-01-15T21:20:51.500Z,28.40
2018-01-15T21:23:19.138Z,28.40
2018-01-15T21:25:47.484Z,28.50
2018-01-15T21:28:15.172Z,28.50
2018-01-15T21:30:42.780Z,28.60
2018-01-15T21:33:11.371Z,30.10
2018-01-15T21:35:38.958Z,28.70
2018-01-15T21:38:06.502Z,28.40
2018-01-15T21:40:34.178Z,28.40
2018-01-15T21:43:01.757Z,28.40
2018-01-15T21:45:30.106Z,28.50
2018-01-15T21:47:57.784Z,28.40
2018-01-15T21:50:25.380Z,28.40
2018-01-15T21:52:52.930Z,28.40
2018-01-15T21:55:21.326Z,28.50
2018-01-15T21:57:48.926Z,28.40
2018-01-15T22:00:16.502Z,29.00
2018-01-15T22:02:44.123Z,28.40
2018-01-15T22:05:11.688Z,28.40
2018-01-15T22:07:39.292Z,28.40
2018-01-15T22:10:07.630Z,28.40
2018-01-15T22:12:35.202Z,28.40
2018-01-15T22:15:02.796Z,28.40
2018-01-15T22:17:31.151Z,28.40
2018-01-15T22:19:58.774Z,28.40
2018-01-15T22:22:26.474Z,28.40
2018-01-15T22:24:54.121Z,28.40
2018-01-15T22:27:22.472Z,28.40
2018-01-15T22:29:50.014Z,28.40
2018-01-15T22:32:17.596Z,28.40
2018-01-15T22:34:45.260Z,28.40
2018-01-15T22:37:12.813Z,28.40
2018-01-15T22:39:40.360Z,28.40
2018-01-15T22:42:07.949Z,28.40
2018-01-15T22:44:35.516Z,28.40
2018-01-15T22:47:03.100Z,28.40
2018-01-15T22:49:31.122Z,28.40
2018-01-15T22:51:58.748Z,28.40
2018-01-15T22:54:27.109Z,28.40
2018-01-15T22:56:56.290Z,28.40
2018-01-15T22:59:23.902Z,28.40
2018-01-15T23:01:51.856Z,28.40
2018-01-15T23:04:20.300Z,28.40
2018-01-15T23:06:47.924Z,28.40
2018-01-15T23:09:16.254Z,28.40
2018-01-15T23:11:43.893Z,28.40
2018-01-15T23:14:11.595Z,28.40
2018-01-15T23:16:40.059Z,28.40
2018-01-15T23:19:08.600Z,28.40
2018-01-15T23:21:36.162Z,28.40
2018-01-15T23:24:03.887Z,28.40
2018-01-15T23:26:31.458Z,28.40
2018-01-15T23:28:59.022Z,28.40
2018-01-15T23:31:26.592Z,28.40
2018-01-15T23:33:54.309Z,28.40
2018-01-15T23:36:21.918Z,28.40
2018-01-15T23:38:49.445Z,28.40
2018-01-15T23:41:17.793Z,28.40
2018-01-15T23:43:45.413Z,28.40
2018-01-15T23:46:12.992Z,28.40
2018-01-15T23:48:40.547Z,28.40
2018-01-15T23:51:08.196Z,28.40
2018-01-15T23:53:35.754Z,28.90
2018-01-15T23:56:03.312Z,28.40
2018-01-15T23:58:30.919Z,28.40
